createdAt,value
2019-01-30T00:01:53.261Z,89.50
2019-01-30T00:04:25.709Z,89.70
2019-01-30T00:06:55.095Z,89.79
2019-01-30T00:09:24.674Z,89.84
2019-01-30T00:11:54.201Z,89.97
2019-01-30T00:14:23.977Z,90.10
2019-01-30T00:16:52.817Z,90.03
2019-01-30T00:19:19.293Z,90.17
2019-01-30T00:21:45.872Z,90.23
2019-01-30T00:24:15.246Z,90.01
2019-01-30T00:26:41.953Z,89.65
2019-01-30T00:29:08.554Z,89.45
2019-01-30T00:31:36.307Z,89.10
2019-01-30T00:34:03.341Z,88.88
2019-01-30T00:36:31.961Z,88.54
2019-01-30T00:38:58.733Z,88.67
2019-01-30T00:41:25.260Z,88.75
2019-01-30T00:43:51.789Z,88.90
2019-01-30T00:46:18.582Z,88.81
2019-01-30T00:48:47.987Z,88.89
2019-01-30T00:51:14.581Z,88.96
2019-01-30T00:53:41.736Z,88.92
2019-01-30T00:56:08.377Z,88.96
2019-01-30T00:58:35.127Z,89.00
2019-01-30T01:01:05.054Z,88.83
2019-01-30T01:03:34.319Z,88.59
2019-01-30T01:06:05.074Z,88.20
2019-01-30T01:08:34.441Z,88.02
2019-01-30T01:11:04.241Z,88.12
2019-01-30T01:13:35.374Z,88.00
2019-01-30T01:16:08.817Z,87.98
2019-01-30T01:18:35.456Z,87.98
2019-01-30T01:21:05.279Z,88.03
2019-01-30T01:23:34.884Z,87.79
2019-01-30T01:26:02.388Z,87.71
2019-01-30T01:28:28.854Z,87.87
2019-01-30T01:30:55.654Z,88.03
2019-01-30T01:33:27.331Z,88.08
2019-01-30T01:35:53.882Z,87.88
2019-01-30T01:38:20.484Z,87.88
2019-01-30T01:40:47.411Z,87.74
2019-01-30T01:43:14.099Z,87.68
2019-01-30T01:45:41.930Z,87.50
2019-01-30T01:48:08.472Z,87.38
2019-01-30T01:50:35.191Z,87.26
2019-01-30T01:53:05.967Z,87.55
2019-01-30T01:55:32.962Z,87.47
2019-01-30T01:58:02.461Z,87.38
2019-01-30T02:00:35.190Z,87.55
2019-01-30T02:02:57.678Z,87.39
2019-01-30T02:05:24.206Z,87.47
2019-01-30T02:07:53.546Z,87.31
2019-01-30T02:10:23.016Z,87.45
2019-01-30T02:12:51.630Z,87.46
2019-01-30T02:15:22.520Z,87.32
2019-01-30T02:17:52.034Z,87.22
2019-01-30T02:20:26.961Z,87.10
2019-01-30T02:22:53.607Z,87.29
2019-01-30T02:25:22.648Z,87.27
2019-01-30T02:27:49.141Z,87.28
2019-01-30T02:30:18.123Z,87.32
2019-01-30T02:32:47.262Z,87.27
2019-01-30T02:35:16.843Z,87.36
2019-01-30T02:37:46.810Z,87.32
2019-01-30T02:40:15.712Z,87.41
2019-01-30T02:42:42.217Z,87.41
2019-01-30T02:45:14.695Z,87.35
2019-01-30T02:47:42.091Z,87.19
2019-01-30T02:50:11.637Z,87.06
2019-01-30T02:52:38.258Z,86.92
2019-01-30T02:55:06.567Z,86.81
2019-01-30T02:57:33.107Z,86.59
2019-01-30T03:00:01.440Z,85.96
2019-01-30T03:02:28.277Z,85.54
2019-01-30T03:04:54.858Z,85.35
2019-01-30T03:07:24.450Z,85.21
2019-01-30T03:09:53.732Z,84.98
2019-01-30T03:12:22.110Z,84.77
2019-01-30T03:14:48.668Z,84.39
2019-01-30T03:17:15.148Z,84.18
2019-01-30T03:19:44.450Z,83.89
2019-01-30T03:22:13.739Z,83.57
2019-01-30T03:24:42.007Z,83.50
2019-01-30T03:27:08.530Z,83.53
2019-01-30T03:29:35.318Z,83.53
2019-01-30T03:32:01.898Z,83.56
2019-01-30T03:34:28.411Z,83.55
2019-01-30T03:36:55.025Z,83.46
2019-01-30T03:39:25.791Z,83.40
2019-01-30T03:41:52.690Z,83.58
2019-01-30T03:44:19.639Z,83.70
2019-01-30T03:46:46.134Z,83.50
2019-01-30T03:49:13.462Z,83.43
2019-01-30T03:51:45.387Z,83.67
2019-01-30T03:54:12.169Z,83.55
2019-01-30T03:56:38.669Z,83.41
2019-01-30T03:59:05.167Z,83.44
2019-01-30T04:01:31.955Z,83.35
2019-01-30T04:03:58.678Z,83.16
2019-01-30T04:06:25.507Z,83.25
2019-01-30T04:08:52.238Z,83.11
2019-01-30T04:11:22.538Z,82.92
2019-01-30T04:13:53.203Z,82.73
2019-01-30T04:16:22.993Z,82.39
2019-01-30T04:18:51.617Z,82.45
2019-01-30T04:21:18.078Z,82.60
2019-01-30T04:23:46.641Z,82.88
2019-01-30T04:26:13.222Z,82.88
2019-01-30T04:28:42.409Z,82.99
2019-01-30T04:31:11.531Z,82.86
2019-01-30T04:33:37.982Z,82.41
2019-01-30T04:36:04.484Z,82.59
2019-01-30T04:38:33.761Z,82.70
2019-01-30T04:41:08.549Z,82.63
2019-01-30T04:43:35.521Z,82.54
2019-01-30T04:46:02.349Z,82.62
2019-01-30T04:48:31.812Z,82.45
2019-01-30T04:51:01.537Z,82.50
2019-01-30T04:53:31.165Z,82.35
2019-01-30T04:56:01.729Z,82.46
2019-01-30T04:58:28.196Z,82.59
2019-01-30T05:00:54.999Z,82.64
2019-01-30T05:03:24.442Z,82.68
2019-01-30T05:05:51.682Z,82.57
2019-01-30T05:08:20.362Z,82.85
2019-01-30T05:10:46.804Z,83.02
2019-01-30T05:13:13.314Z,83.10
2019-01-30T05:15:43.138Z,82.86
2019-01-30T05:18:12.009Z,82.72
2019-01-30T05:20:41.993Z,82.47
2019-01-30T05:23:11.998Z,82.58
2019-01-30T05:25:40.667Z,81.91
2019-01-30T05:28:07.468Z,81.82
2019-01-30T05:30:34.310Z,81.76
2019-01-30T05:33:04.042Z,81.73
2019-01-30T05:35:35.063Z,81.41
2019-01-30T05:38:01.595Z,81.32
2019-01-30T05:40:31.340Z,81.23
2019-01-30T05:42:57.861Z,81.36
2019-01-30T05:45:24.481Z,81.33
2019-01-30T05:47:51.747Z,80.99
2019-01-30T05:50:22.280Z,80.99
2019-01-30T05:52:51.301Z,80.91
2019-01-30T05:55:17.948Z,80.83
2019-01-30T05:57:46.294Z,80.66
2019-01-30T06:00:22.548Z,80.78
2019-01-30T06:02:51.837Z,80.62
2019-01-30T06:05:20.402Z,80.25
2019-01-30T06:07:47.241Z,80.17
2019-01-30T06:10:13.912Z,80.17
2019-01-30T06:12:41.732Z,79.94
2019-01-30T06:15:12.568Z,79.75
2019-01-30T06:17:42.231Z,79.90
2019-01-30T06:20:12.510Z,79.98
2019-01-30T06:22:41.808Z,79.92
2019-01-30T06:25:10.439Z,79.48
2019-01-30T06:27:36.925Z,79.39
2019-01-30T06:30:04.804Z,79.07
2019-01-30T06:32:31.331Z,79.08
2019-01-30T06:35:01.161Z,78.45
2019-01-30T06:37:33.744Z,78.80
2019-01-30T06:40:00.742Z,78.39
2019-01-30T06:42:27.531Z,78.53
2019-01-30T06:44:54.512Z,78.21
2019-01-30T06:47:21.207Z,77.61
2019-01-30T06:49:48.747Z,77.96
2019-01-30T06:52:15.544Z,77.92
2019-01-30T06:54:42.284Z,77.84
2019-01-30T06:57:09.138Z,78.14
2019-01-30T06:59:35.644Z,77.68
2019-01-30T07:02:02.300Z,77.12
2019-01-30T07:04:28.864Z,77.37
2019-01-30T07:06:55.390Z,77.42
2019-01-30T07:09:21.889Z,77.98
2019-01-30T07:11:48.496Z,77.26
2019-01-30T07:14:15.315Z,77.20
2019-01-30T07:16:41.821Z,77.35
2019-01-30T07:19:08.326Z,77.21
2019-01-30T07:21:35.338Z,76.97
2019-01-30T07:24:01.918Z,77.68
2019-01-30T07:26:28.648Z,77.41
2019-01-30T07:28:55.233Z,77.19
2019-01-30T07:31:21.879Z,76.53
2019-01-30T07:33:50.378Z,76.66
2019-01-30T07:36:17.150Z,76.35
2019-01-30T07:38:43.768Z,76.46
2019-01-30T07:41:10.407Z,76.44
2019-01-30T07:43:36.928Z,76.51
2019-01-30T07:46:03.602Z,75.95
2019-01-30T07:48:33.473Z,75.90
2019-01-30T07:51:00.060Z,76.27
2019-01-30T07:53:26.635Z,75.93
2019-01-30T07:55:53.251Z,74.92
2019-01-30T07:58:19.701Z,74.64
2019-01-30T08:00:46.326Z,74.48
2019-01-30T08:03:12.916Z,75.12
2019-01-30T08:05:39.559Z,74.75
2019-01-30T08:08:06.197Z,74.98
2019-01-30T08:10:32.767Z,74.46
2019-01-30T08:12:59.668Z,74.34
2019-01-30T08:15:26.413Z,73.66
2019-01-30T08:17:53.174Z,74.03
2019-01-30T08:20:20.440Z,74.11
2019-01-30T08:22:47.391Z,73.52
2019-01-30T08:25:16.410Z,73.50
2019-01-30T08:27:48.483Z,73.66
2019-01-30T08:30:22.557Z,73.23
2019-01-30T08:32:46.585Z,73.01
2019-01-30T08:35:13.938Z,72.68
2019-01-30T08:37:41.161Z,72.70
2019-01-30T08:40:08.056Z,72.38
2019-01-30T08:42:34.710Z,72.67
2019-01-30T08:45:01.444Z,72.49
2019-01-30T08:47:28.000Z,71.84
2019-01-30T08:49:54.559Z,71.53
2019-01-30T08:52:21.149Z,71.75
2019-01-30T08:54:47.778Z,71.80
2019-01-30T08:57:14.668Z,71.93
2019-01-30T08:59:41.337Z,71.06
2019-01-30T09:02:08.356Z,71.97
2019-01-30T09:04:34.926Z,71.24
2019-01-30T09:07:01.413Z,71.50
2019-01-30T09:09:27.917Z,70.85
2019-01-30T09:11:54.444Z,71.27
2019-01-30T09:14:21.135Z,71.11
2019-01-30T09:16:47.626Z,70.73
2019-01-30T09:19:17.117Z,70.25
2019-01-30T09:21:43.984Z,70.77
2019-01-30T09:24:10.706Z,70.83
2019-01-30T09:26:37.448Z,70.02
2019-01-30T09:29:04.005Z,69.76
2019-01-30T09:31:30.783Z,69.74
2019-01-30T09:33:57.588Z,69.57
2019-01-30T09:36:24.217Z,68.62
2019-01-30T09:38:51.914Z,68.50
2019-01-30T09:41:18.557Z,67.49
2019-01-30T09:43:45.040Z,68.59
2019-01-30T09:46:11.636Z,67.75
2019-01-30T09:48:39.653Z,68.09
2019-01-30T09:51:08.259Z,67.56
2019-01-30T09:53:35.664Z,67.67
2019-01-30T09:56:02.726Z,67.34
2019-01-30T09:58:29.230Z,67.31
2019-01-30T10:00:55.985Z,67.60
2019-01-30T10:03:22.503Z,67.73
2019-01-30T10:05:49.354Z,66.47
2019-01-30T10:08:15.807Z,66.48
2019-01-30T10:10:42.288Z,66.64
2019-01-30T10:13:09.170Z,66.73
2019-01-30T10:15:37.771Z,66.46
2019-01-30T10:18:04.713Z,66.22
2019-01-30T10:20:31.624Z,66.01
2019-01-30T10:22:59.566Z,65.58
2019-01-30T10:25:26.273Z,65.87
2019-01-30T10:27:52.895Z,65.98
2019-01-30T10:30:24.829Z,65.53
2019-01-30T10:32:51.411Z,65.63
2019-01-30T10:35:18.113Z,65.63
2019-01-30T10:37:45.478Z,64.34
2019-01-30T10:40:14.329Z,63.61
2019-01-30T10:42:46.004Z,63.67
2019-01-30T10:45:12.858Z,62.66
2019-01-30T10:47:39.476Z,62.97
2019-01-30T10:50:07.788Z,61.41
2019-01-30T10:52:34.393Z,61.78
2019-01-30T10:55:00.909Z,62.39
2019-01-30T10:57:27.496Z,62.55
2019-01-30T10:59:54.227Z,63.01
2019-01-30T11:02:23.328Z,61.12
2019-01-30T11:04:56.230Z,62.49
2019-01-30T11:07:26.243Z,63.09
2019-01-30T11:09:53.252Z,63.06
2019-01-30T11:12:19.928Z,63.14
2019-01-30T11:14:47.918Z,62.73
2019-01-30T11:17:14.367Z,62.38
2019-01-30T11:19:42.057Z,61.80
2019-01-30T11:22:09.035Z,61.46
2019-01-30T11:24:35.601Z,60.42
2019-01-30T11:27:02.121Z,61.84
2019-01-30T11:29:29.240Z,61.45
2019-01-30T11:31:55.762Z,61.13
2019-01-30T11:34:22.278Z,61.54
2019-01-30T11:36:50.972Z,61.16
2019-01-30T11:39:17.476Z,61.31
2019-01-30T11:41:44.103Z,62.28
2019-01-30T11:44:11.300Z,62.94
2019-01-30T11:46:37.769Z,62.79
2019-01-30T11:49:05.077Z,62.51
2019-01-30T11:51:31.557Z,61.74
2019-01-30T11:53:58.131Z,62.28
2019-01-30T11:56:24.861Z,61.21
2019-01-30T11:59:01.124Z,61.50
2019-01-30T12:01:27.957Z,61.04
2019-01-30T12:03:54.527Z,60.88
2019-01-30T12:06:21.174Z,61.32
2019-01-30T12:08:51.293Z,61.26
2019-01-30T12:11:17.801Z,61.18
2019-01-30T12:13:44.501Z,59.62
2019-01-30T12:16:11.229Z,60.51
2019-01-30T12:18:37.829Z,61.04
2019-01-30T12:21:04.356Z,60.83
2019-01-30T12:23:30.943Z,61.43
2019-01-30T12:25:57.454Z,60.69
2019-01-30T12:28:26.666Z,62.08
2019-01-30T12:30:54.372Z,61.04
2019-01-30T12:33:20.979Z,61.59
2019-01-30T12:35:47.468Z,62.20
2019-01-30T12:38:14.193Z,62.28
2019-01-30T12:40:40.737Z,61.78
2019-01-30T12:43:07.363Z,61.38
2019-01-30T12:45:34.299Z,60.93
2019-01-30T12:48:01.215Z,61.77
2019-01-30T12:50:27.940Z,62.57
2019-01-30T12:52:54.595Z,61.69
2019-01-30T12:55:21.344Z,62.31
2019-01-30T12:57:48.153Z,62.17
2019-01-30T13:00:17.213Z,62.00
2019-01-30T13:02:43.779Z,61.45
2019-01-30T13:05:10.799Z,61.87
2019-01-30T13:07:43.994Z,62.78
2019-01-30T13:10:21.465Z,61.90
2019-01-30T13:12:56.600Z,62.38
2019-01-30T13:15:24.195Z,63.15
2019-01-30T13:17:51.031Z,63.02
2019-01-30T13:20:18.801Z,62.92
2019-01-30T13:22:45.487Z,62.89
2019-01-30T13:25:20.462Z,63.57
2019-01-30T13:27:46.964Z,63.45
2019-01-30T13:30:17.024Z,63.01
2019-01-30T13:32:43.569Z,63.54
2019-01-30T13:35:10.299Z,64.77
2019-01-30T13:37:36.886Z,64.20
2019-01-30T13:40:05.999Z,64.68
2019-01-30T13:42:32.606Z,65.30
2019-01-30T13:44:59.190Z,64.85
2019-01-30T13:47:26.186Z,65.20
2019-01-30T13:49:52.789Z,65.78
2019-01-30T13:52:19.339Z,65.77
2019-01-30T13:54:45.966Z,66.08
2019-01-30T13:57:12.552Z,66.22
2019-01-30T13:59:41.651Z,66.27
2019-01-30T14:02:08.227Z,66.15
2019-01-30T14:04:34.809Z,66.21
2019-01-30T14:07:01.369Z,66.23
2019-01-30T14:09:28.273Z,66.00
2019-01-30T14:11:55.044Z,66.56
2019-01-30T14:14:21.523Z,66.03
2019-01-30T14:16:48.282Z,66.14
2019-01-30T14:19:15.022Z,66.99
2019-01-30T14:21:42.163Z,67.03
2019-01-30T14:24:08.798Z,67.29
2019-01-30T14:26:35.624Z,67.52
2019-01-30T14:29:04.322Z,67.38
2019-01-30T14:31:30.983Z,67.61
2019-01-30T14:33:58.250Z,67.77
2019-01-30T14:36:25.129Z,68.07
2019-01-30T14:38:52.113Z,68.56
2019-01-30T14:41:18.665Z,68.07
2019-01-30T14:43:49.675Z,67.89
2019-01-30T14:46:16.588Z,67.89
2019-01-30T14:48:43.096Z,68.21
2019-01-30T14:51:12.586Z,67.98
2019-01-30T14:53:39.233Z,67.12
2019-01-30T14:56:05.778Z,67.19
2019-01-30T14:58:32.499Z,67.48
2019-01-30T15:00:59.593Z,67.54
2019-01-30T15:03:26.313Z,68.20
2019-01-30T15:05:52.973Z,67.92
2019-01-30T15:08:19.828Z,67.59
2019-01-30T15:10:46.417Z,68.15
2019-01-30T15:13:12.897Z,68.18
2019-01-30T15:15:39.473Z,68.55
2019-01-30T15:18:09.962Z,68.82
2019-01-30T15:20:37.651Z,68.51
2019-01-30T15:23:05.606Z,68.93
2019-01-30T15:25:33.257Z,68.59
2019-01-30T15:28:00.119Z,67.96
2019-01-30T15:30:29.445Z,68.56
2019-01-30T15:32:56.153Z,68.02
2019-01-30T15:35:33.130Z,68.35
2019-01-30T15:37:51.786Z,68.06
2019-01-30T15:40:25.048Z,68.19
2019-01-30T15:42:51.831Z,68.56
2019-01-30T15:45:21.875Z,68.26
2019-01-30T15:47:54.508Z,68.04
2019-01-30T15:50:25.057Z,68.61
2019-01-30T15:52:57.473Z,68.15
2019-01-30T15:55:28.710Z,68.17
2019-01-30T15:58:01.602Z,68.04
2019-01-30T16:00:46.297Z,68.28
2019-01-30T16:03:12.888Z,69.08
2019-01-30T16:05:44.900Z,68.46
2019-01-30T16:08:26.319Z,69.14
2019-01-30T16:10:52.957Z,69.27
2019-01-30T16:13:19.640Z,69.61
2019-01-30T16:15:53.015Z,69.56
2019-01-30T16:18:19.580Z,69.18
2019-01-30T16:20:49.390Z,68.75
2019-01-30T16:23:16.991Z,69.42
2019-01-30T16:25:43.473Z,69.66
2019-01-30T16:28:10.008Z,69.70
2019-01-30T16:30:36.940Z,69.38
2019-01-30T16:33:05.937Z,69.32
2019-01-30T16:35:32.553Z,69.88
2019-01-30T16:37:59.150Z,69.35
2019-01-30T16:40:28.561Z,69.50
2019-01-30T16:42:59.103Z,70.14
2019-01-30T16:45:28.777Z,70.28
2019-01-30T16:47:57.223Z,69.93
2019-01-30T16:50:23.803Z,70.14
2019-01-30T16:52:50.466Z,70.09
2019-01-30T16:55:20.111Z,70.03
2019-01-30T16:57:52.423Z,70.54
2019-01-30T17:00:21.802Z,70.16
2019-01-30T17:02:48.736Z,70.43
2019-01-30T17:05:20.853Z,70.44
2019-01-30T17:07:47.676Z,70.12
2019-01-30T17:10:14.475Z,70.40
2019-01-30T17:12:41.006Z,70.99
2019-01-30T17:15:15.245Z,71.13
2019-01-30T17:17:43.716Z,70.86
2019-01-30T17:20:25.586Z,71.54
2019-01-30T17:22:52.711Z,70.71
2019-01-30T17:25:19.765Z,70.71
2019-01-30T17:27:49.234Z,70.15
2019-01-30T17:30:46.171Z,70.10
2019-01-30T17:33:12.755Z,70.16
2019-01-30T17:35:41.520Z,70.38
2019-01-30T17:38:08.990Z,71.07
2019-01-30T17:40:36.110Z,70.50
2019-01-30T17:43:03.839Z,71.43
2019-01-30T17:45:31.426Z,71.74
2019-01-30T17:47:58.119Z,71.96
2019-01-30T17:50:24.849Z,71.46
2019-01-30T17:52:54.572Z,71.04
2019-01-30T17:55:21.273Z,70.65
2019-01-30T17:57:47.788Z,70.08
2019-01-30T18:00:22.260Z,69.90
2019-01-30T18:02:48.901Z,70.22
2019-01-30T18:05:15.831Z,70.00
2019-01-30T18:07:42.343Z,69.88
2019-01-30T18:10:09.372Z,70.12
2019-01-30T18:12:37.737Z,69.81
2019-01-30T18:15:04.979Z,68.33
2019-01-30T18:17:31.536Z,68.70
2019-01-30T18:20:01.432Z,67.74
2019-01-30T18:22:27.892Z,68.18
2019-01-30T18:24:54.404Z,68.60
2019-01-30T18:27:21.058Z,68.25
2019-01-30T18:29:50.721Z,68.81
2019-01-30T18:32:19.898Z,68.63
2019-01-30T18:34:46.520Z,68.59
2019-01-30T18:37:15.148Z,68.99
2019-01-30T18:39:42.006Z,69.47
2019-01-30T18:42:09.374Z,69.84
2019-01-30T18:44:35.915Z,70.18
2019-01-30T18:47:03.564Z,70.34
2019-01-30T18:49:30.333Z,69.68
2019-01-30T18:51:57.645Z,69.80
2019-01-30T18:54:24.249Z,70.31
2019-01-30T18:56:51.092Z,69.99
2019-01-30T18:59:17.983Z,70.04
2019-01-30T19:01:44.802Z,70.13
2019-01-30T19:04:11.399Z,69.39
2019-01-30T19:06:51.750Z,69.89
2019-01-30T19:09:09.634Z,70.11
2019-01-30T19:11:36.318Z,69.99
2019-01-30T19:14:02.976Z,69.95
2019-01-30T19:16:29.997Z,70.07
2019-01-30T19:18:56.746Z,70.33
2019-01-30T19:21:23.305Z,70.84
2019-01-30T19:23:49.802Z,70.44
2019-01-30T19:26:16.522Z,70.55
2019-01-30T19:28:43.070Z,70.73
2019-01-30T19:31:09.778Z,70.45
2019-01-30T19:33:36.432Z,71.11
2019-01-30T19:36:03.228Z,71.15
2019-01-30T19:38:29.731Z,71.63
2019-01-30T19:40:58.348Z,71.74
2019-01-30T19:43:26.091Z,71.90
2019-01-30T19:45:52.668Z,72.27
2019-01-30T19:48:19.514Z,72.38
2019-01-30T19:50:48.171Z,72.47
2019-01-30T19:53:14.687Z,73.06
2019-01-30T19:55:41.413Z,73.12
2019-01-30T19:58:08.005Z,73.34
2019-01-30T20:00:42.231Z,73.67
2019-01-30T20:03:11.729Z,73.46
2019-01-30T20:05:38.739Z,73.60
2019-01-30T20:08:06.631Z,73.48
2019-01-30T20:10:33.660Z,73.59
2019-01-30T20:13:00.451Z,73.57
2019-01-30T20:15:27.636Z,73.74
2019-01-30T20:17:54.431Z,74.13
2019-01-30T20:20:23.129Z,74.30
2019-01-30T20:22:49.795Z,74.34
2019-01-30T20:25:18.504Z,74.09
2019-01-30T20:27:47.297Z,74.37
2019-01-30T20:30:18.200Z,74.57
2019-01-30T20:32:45.462Z,74.69
2019-01-30T20:35:12.269Z,74.12
2019-01-30T20:37:38.786Z,74.35
2019-01-30T20:40:12.055Z,74.56
2019-01-30T20:42:38.710Z,74.28
2019-01-30T20:45:07.516Z,74.34
2019-01-30T20:47:34.007Z,74.36
2019-01-30T20:50:00.769Z,74.08
2019-01-30T20:52:27.247Z,74.10
2019-01-30T20:54:59.835Z,74.09
2019-01-30T20:57:22.625Z,74.11
2019-01-30T20:59:49.605Z,74.05
2019-01-30T21:02:16.520Z,74.15
2019-01-30T21:04:43.288Z,74.23
2019-01-30T21:07:09.808Z,73.96
2019-01-30T21:09:36.928Z,73.75
2019-01-30T21:12:03.550Z,73.38
2019-01-30T21:14:30.431Z,72.93
2019-01-30T21:16:56.940Z,73.18
2019-01-30T21:19:23.506Z,73.39
2019-01-30T21:21:50.034Z,73.86
2019-01-30T21:24:16.613Z,73.77
2019-01-30T21:26:43.363Z,74.29
2019-01-30T21:29:09.923Z,74.03
2019-01-30T21:31:36.419Z,73.82
2019-01-30T21:34:03.292Z,72.98
2019-01-30T21:36:30.019Z,73.06
2019-01-30T21:38:56.725Z,73.16
2019-01-30T21:41:23.710Z,72.70
2019-01-30T21:43:50.493Z,72.66
2019-01-30T21:46:22.192Z,72.41
2019-01-30T21:48:48.710Z,71.94
2019-01-30T21:51:15.563Z,72.38
2019-01-30T21:53:42.219Z,71.89
2019-01-30T21:56:09.988Z,71.86
2019-01-30T21:58:36.849Z,71.88
2019-01-30T22:01:03.504Z,71.34
2019-01-30T22:03:30.030Z,71.26
2019-01-30T22:06:08.564Z,70.55
2019-01-30T22:08:35.918Z,70.22
2019-01-30T22:11:10.976Z,70.72
2019-01-30T22:13:37.537Z,70.65
2019-01-30T22:16:04.319Z,70.66
2019-01-30T22:18:30.922Z,70.64
2019-01-30T22:20:57.552Z,70.96
2019-01-30T22:23:24.084Z,70.90
2019-01-30T22:25:50.776Z,70.10
2019-01-30T22:28:17.425Z,69.78
2019-01-30T22:30:43.925Z,69.70
2019-01-30T22:33:10.397Z,69.69
2019-01-30T22:35:37.042Z,69.30
2019-01-30T22:38:12.218Z,69.33
2019-01-30T22:40:32.319Z,68.84
2019-01-30T22:42:58.962Z,69.41
2019-01-30T22:45:34.758Z,69.07
2019-01-30T22:48:01.260Z,68.40
2019-01-30T22:50:27.757Z,68.17
2019-01-30T22:52:54.402Z,68.67
2019-01-30T22:55:21.775Z,69.04
2019-01-30T22:57:50.759Z,69.17
2019-01-30T23:00:50.944Z,69.37
2019-01-30T23:03:18.233Z,69.48
2019-01-30T23:06:31.226Z,69.85
2019-01-30T23:09:31.455Z,70.10
2019-01-30T23:12:34.301Z,70.37
2019-01-30T23:15:08.212Z,70.91
2019-01-30T23:17:55.925Z,71.31
2019-01-30T23:20:45.473Z,71.35
2019-01-30T23:23:46.206Z,71.92
2019-01-30T23:26:23.345Z,71.92
2019-01-30T23:29:38.147Z,72.42
2019-01-30T23:33:01.694Z,72.58
2019-01-30T23:36:15.451Z,72.71
2019-01-30T23:39:20.851Z,73.17
2019-01-30T23:42:05.805Z,72.85
2019-01-30T23:44:48.781Z,73.38
2019-01-30T23:47:56.265Z,73.75
2019-01-30T23:50:35.557Z,73.54
2019-01-30T23:53:48.345Z,73.82
2019-01-30T23:56:37.201Z,74.03
2019-01-30T23:59:20.743Z,74.06
